Time;durP1;ratioP1;P1;durP2;ratioP2;P2;SDS_P1;SDS_P2;PMS_P1;PMS_P2;Temp;Humidity;BMP_temperature;BMP_pressure;BME280_temperature;BME280_humidity;BME280_pressure;Samples;Min_cycle;Max_cycle;Signal;HPM_P1;HPM_P2
2021/11/21 00:01:16;;;;;;;2.90;1.30;;;;;;;4.90;61.65;98863.86;24456;1354;3027362;-68
2021/11/21 00:03:45;;;;;;;5.60;1.70;;;;;;;4.93;61.51;98869.82;24527;1358;3049564;-66
2021/11/21 00:06:16;;;;;;;5.80;1.20;;;;;;;4.93;61.45;98869.77;24458;1355;3027431;-69
2021/11/21 00:08:45;;;;;;;2.00;1.00;;;;;;;4.84;61.74;98863.43;24456;1354;3026939;-70
2021/11/21 00:11:15;;;;;;;4.90;1.10;;;;;;;4.81;61.76;98865.86;24477;1359;3026473;-68
2021/11/21 00:13:45;;;;;;;3.80;1.10;;;;;;;4.84;61.67;98865.55;24449;1358;3052845;-68
2021/11/21 00:16:14;;;;;;;4.20;1.40;;;;;;;4.83;61.59;98867.64;24461;1360;3026673;-68
2021/11/21 00:18:43;;;;;;;5.70;1.60;;;;;;;4.85;61.64;98868.59;24460;1358;3026873;-71
2021/11/21 00:21:13;;;;;;;7.30;1.10;;;;;;;4.81;61.84;98874.20;24464;1357;3054991;-70
2021/11/21 00:23:42;;;;;;;7.70;0.90;;;;;;;4.82;61.81;98879.34;24478;1361;3026388;-68
2021/11/21 00:26:11;;;;;;;3.30;1.00;;;;;;;4.77;62.04;98878.71;24438;1354;3028863;-68
2021/11/21 00:28:40;;;;;;;4.50;1.40;;;;;;;4.78;61.81;98879.34;24479;1354;3054818;-66
2021/11/21 00:31:09;;;;;;;7.90;1.20;;;;;;;4.75;62.06;98871.17;24462;1360;3026268;-70
2021/11/21 00:33:38;;;;;;;5.00;1.20;;;;;;;4.73;62.27;98872.29;24453;1354;3048928;-70
2021/11/21 00:36:07;;;;;;;3.70;1.40;;;;;;;4.72;62.20;98875.98;24530;1356;3027178;-67
2021/11/21 00:38:37;;;;;;;4.10;1.20;;;;;;;4.73;62.35;98874.18;24461;1360;3057995;-68
2021/11/21 00:41:06;;;;;;;8.80;1.70;;;;;;;4.72;62.31;98871.11;24395;1354;3026745;-73
2021/11/21 00:43:36;;;;;;;2.00;1.00;;;;;;;4.66;62.59;98875.19;24461;1354;3026190;-69
2021/11/21 00:46:05;;;;;;;4.90;1.40;;;;;;;4.66;62.59;98876.41;24504;1360;3058172;-68
2021/11/21 00:48:37;;;;;;;7.70;1.60;;;;;;;4.61;62.77;98883.05;24489;1354;3026349;-65
2021/11/21 00:51:08;;;;;;;4.20;1.40;;;;;;;4.66;62.77;98883.53;24484;1352;3052939;-70
2021/11/21 00:53:41;;;;;;;2.90;1.30;;;;;;;4.60;63.00;98885.73;24504;1354;3026441;-67
2021/11/21 00:56:12;;;;;;;5.60;1.20;;;;;;;4.68;62.75;98884.67;24534;1360;3026819;-73
2021/11/21 00:58:41;;;;;;;5.80;1.20;;;;;;;4.68;62.88;98877.55;24395;1357;3026642;-66
2021/11/21 01:01:10;;;;;;;5.20;1.20;;;;;;;4.68;62.71;98877.87;24496;1358;3026617;-73
2021/11/21 01:03:40;;;;;;;5.00;1.30;;;;;;;4.65;62.82;98884.80;24478;1357;3068196;-65
2021/11/21 01:06:14;;;;;;;2.60;1.30;;;;;;;4.60;63.07;98882.42;24507;1354;3049006;-67
2021/11/21 01:08:43;;;;;;;5.90;2.20;;;;;;;4.62;63.31;98886.67;24475;1358;3027360;-68
2021/11/21 01:11:12;;;;;;;4.00;1.30;;;;;;;4.62;63.36;98888.58;24484;1361;3070961;-71
2021/11/21 01:13:41;;;;;;;7.50;2.20;;;;;;;4.60;63.67;98886.73;24476;1358;3028360;-68
2021/11/21 01:16:10;;;;;;;6.30;2.40;;;;;;;4.59;64.03;98889.23;24499;1357;3026893;-67
2021/11/21 01:18:40;;;;;;;6.30;2.30;;;;;;;4.60;64.17;98892.83;24401;1354;3070892;-72
2021/11/21 01:21:09;;;;;;;7.40;2.50;;;;;;;4.69;63.80;98894.15;24446;1357;3026455;-67
2021/11/21 01:23:38;;;;;;;8.50;3.40;;;;;;;4.65;63.82;98890.36;24439;1354;3053505;-73
2021/11/21 01:26:08;;;;;;;14.10;6.10;;;;;;;4.53;64.47;98892.77;24442;1357;3026351;-71
2021/11/21 01:28:37;;;;;;;21.50;7.00;;;;;;;4.50;64.20;98883.73;24487;1354;3054790;-64
2021/11/21 01:31:06;;;;;;;21.00;8.70;;;;;;;4.48;64.19;98884.86;24411;1351;3030209;-64
2021/11/21 01:33:37;;;;;;;28.50;10.00;;;;;;;4.42;64.30;98880.98;24457;1354;3049756;-72
2021/11/21 01:36:06;;;;;;;35.30;13.70;;;;;;;4.28;64.76;98885.23;24457;1363;3027323;-68
2021/11/21 01:38:37;;;;;;;38.20;14.00;;;;;;;4.10;65.67;98892.41;24447;1359;3026893;-69
2021/11/21 01:41:06;;;;;;;45.00;16.40;;;;;;;4.15;65.16;98896.54;24415;1355;3026813;-68
2021/11/21 01:43:35;;;;;;;45.90;19.30;;;;;;;4.00;65.71;98898.92;24451;1354;3028493;-69
2021/11/21 01:46:08;;;;;;;41.70;16.50;;;;;;;3.73;66.79;98889.49;24428;1357;3026962;-70
2021/11/21 01:48:37;;;;;;;37.50;15.40;;;;;;;3.63;66.98;98890.58;24472;1354;3026758;-67
2021/11/21 01:51:08;;;;;;;54.00;15.90;;;;;;;3.62;66.86;98892.34;24459;1359;3027148;-74
2021/11/21 01:53:38;;;;;;;37.80;13.10;;;;;;;3.47;67.26;98889.30;24452;1361;3026187;-66
2021/11/21 01:56:07;;;;;;;47.30;13.30;;;;;;;3.57;66.61;98889.42;24500;1354;3028628;-66
2021/11/21 01:58:36;;;;;;;33.80;10.20;;;;;;;3.46;67.21;98885.77;24454;1357;3058233;-68
2021/11/21 02:01:10;;;;;;;33.60;9.10;;;;;;;3.31;67.68;98882.72;24495;1357;3052236;-72
2021/11/21 02:03:40;;;;;;;32.90;8.80;;;;;;;3.35;67.20;98880.44;24462;1358;3026836;-69
2021/11/21 02:06:09;;;;;;;33.70;5.40;;;;;;;3.31;67.54;98885.10;24471;1359;3026664;-69
2021/11/21 02:08:39;;;;;;;33.30;6.80;;;;;;;4.13;66.69;98884.64;24414;1356;3051923;-73
2021/11/21 02:11:08;;;;;;;21.10;4.00;;;;;;;4.39;64.72;98885.78;24418;1358;3026299;-71
2021/11/21 02:13:38;;;;;;;26.80;4.70;;;;;;;4.37;64.31;98893.52;24436;1359;3026530;-64
2021/11/21 02:16:08;;;;;;;17.00;4.80;;;;;;;4.35;64.15;98893.58;24454;1354;3051781;-69
2021/11/21 02:18:37;;;;;;;20.40;6.20;;;;;;;4.01;65.12;98907.01;24436;1358;3027127;-71
2021/11/21 02:21:07;;;;;;;13.50;3.70;;;;;;;3.76;65.76;98909.29;24432;1358;3026080;-64
2021/11/21 02:23:36;;;;;;;25.10;5.30;;;;;;;3.69;66.03;98914.41;24479;1359;3026529;-69
2021/11/21 02:26:05;;;;;;;11.00;3.40;;;;;;;3.54;66.50;98913.48;24436;1358;3052731;-73
2021/11/21 02:28:36;;;;;;;12.70;3.40;;;;;;;3.32;67.63;98906.91;24487;1360;3026450;-69
2021/11/21 02:31:05;;;;;;;19.60;4.30;;;;;;;3.28;67.58;98908.43;24407;1356;3026583;-68
2021/11/21 02:33:35;;;;;;;14.80;3.60;;;;;;;3.10;68.28;98911.56;24407;1360;3026417;-65
2021/11/21 02:36:05;;;;;;;11.90;2.90;;;;;;;2.83;69.36;98904.27;24438;1357;3030583;-72
2021/11/21 02:38:35;;;;;;;8.40;3.00;;;;;;;2.87;69.11;98908.98;24383;1355;3029988;-67
2021/11/21 02:41:06;;;;;;;10.30;2.20;;;;;;;2.91;69.65;98909.00;24429;1360;3026622;-68
2021/11/21 02:43:36;;;;;;;8.60;3.00;;;;;;;3.61;67.88;98911.45;24469;1357;3027124;-68
2021/11/21 02:46:08;;;;;;;8.30;2.50;;;;;;;4.05;66.23;98905.46;24489;1355;3026866;-70
2021/11/21 02:48:38;;;;;;;9.00;3.20;;;;;;;3.88;66.32;98904.27;24475;1359;3028105;-66
2021/11/21 02:51:08;;;;;;;14.70;4.10;;;;;;;3.75;66.37;98897.36;24459;1355;3052625;-66
2021/11/21 02:53:38;;;;;;;9.00;2.80;;;;;;;3.45;67.17;98902.90;24481;1358;3026455;-70
2021/11/21 02:56:10;;;;;;;9.60;3.10;;;;;;;3.21;68.09;98914.42;24488;1354;3026947;-70
2021/11/21 02:58:39;;;;;;;7.60;2.70;;;;;;;2.98;68.95;98920.84;24388;1360;3029857;-71
2021/11/21 03:01:19;;;;;;;15.70;4.40;;;;;;;2.80;69.66;98921.34;24478;1360;3026045;-71
2021/11/21 03:03:49;;;;;;;22.90;5.40;;;;;;;2.62;70.47;98923.60;24475;1348;3051015;-70
2021/11/21 03:06:20;;;;;;;16.80;4.90;;;;;;;2.79;70.26;98934.70;24430;1360;3026349;-74
2021/11/21 03:08:50;;;;;;;12.30;3.80;;;;;;;3.00;70.52;98933.73;24443;1360;3028047;-69
2021/11/21 03:11:29;;;;;;;12.40;3.80;;;;;;;3.52;68.80;98935.72;24450;1359;3026643;-69
2021/11/21 03:13:59;;;;;;;15.20;4.70;;;;;;;3.48;68.23;98922.88;24453;1355;3055387;-67
2021/11/21 03:16:29;;;;;;;12.60;4.30;;;;;;;3.17;69.02;98923.77;24450;1360;3026567;-65
2021/11/21 03:18:58;;;;;;;13.50;4.20;;;;;;;3.10;69.14;98921.61;24479;1360;3026185;-68
2021/11/21 03:21:28;;;;;;;14.60;5.00;;;;;;;2.86;70.04;98928.03;24464;1361;3051661;-66
2021/11/21 03:23:56;;;;;;;13.80;5.60;;;;;;;2.71;70.22;98933.64;24458;1358;3026456;-66
2021/11/21 03:26:29;;;;;;;12.90;3.60;;;;;;;2.43;71.55;98937.21;24478;1360;3056022;-70
2021/11/21 03:28:58;;;;;;;13.00;3.10;;;;;;;2.52;70.92;98937.56;24513;1357;3026675;-69
2021/11/21 03:31:27;;;;;;;10.10;2.80;;;;;;;2.43;71.74;98931.70;24394;1358;3026747;-65
2021/11/21 03:33:56;;;;;;;12.50;3.70;;;;;;;3.18;70.78;98932.70;24514;1355;3054364;-70
2021/11/21 03:36:27;;;;;;;16.40;3.30;;;;;;;3.60;68.47;98929.86;24459;1355;3027055;-67
2021/11/21 03:38:56;;;;;;;15.00;3.60;;;;;;;3.44;68.31;98920.94;24410;1356;3026819;-76
2021/11/21 03:41:25;;;;;;;13.10;3.60;;;;;;;3.15;69.23;98920.35;24416;1358;3026711;-71
2021/11/21 03:43:55;;;;;;;14.50;3.00;;;;;;;2.83;70.24;98921.93;24455;1354;3026483;-70
2021/11/21 03:46:24;;;;;;;17.00;4.20;;;;;;;2.49;71.54;98926.63;24437;1360;3026919;-72
2021/11/21 03:48:53;;;;;;;12.50;3.80;;;;;;;2.46;71.96;98924.66;24409;1355;3049185;-68
2021/11/21 03:51:22;;;;;;;8.40;2.80;;;;;;;2.34;71.84;98926.48;24505;1359;3026545;-71
2021/11/21 03:53:52;;;;;;;11.80;3.10;;;;;;;2.33;72.76;98926.88;24482;1358;3026310;-73
2021/11/21 03:56:21;;;;;;;9.70;2.40;;;;;;;3.05;71.30;98923.85;24459;1360;3026803;-67
2021/11/21 03:58:51;;;;;;;12.20;3.20;;;;;;;3.49;69.25;98929.27;24433;1360;3055449;-70
2021/11/21 04:01:20;;;;;;;9.50;2.20;;;;;;;2.99;70.16;98928.44;24447;1360;3026000;-66
2021/11/21 04:03:50;;;;;;;17.50;3.20;;;;;;;2.91;70.62;98930.77;24435;1360;3048128;-66
2021/11/21 04:06:20;;;;;;;11.60;3.70;;;;;;;2.78;70.89;98930.43;24475;1356;3026717;-67
2021/11/21 04:08:49;;;;;;;10.60;2.20;;;;;;;2.48;72.01;98933.77;24439;1357;3026401;-71
2021/11/21 04:11:18;;;;;;;10.70;2.90;;;;;;;2.34;72.48;98928.21;24437;1360;3026535;-73
2021/11/21 04:13:47;;;;;;;12.10;3.40;;;;;;;2.28;72.49;98933.61;24483;1351;3026266;-67
2021/11/21 04:16:16;;;;;;;13.00;4.20;;;;;;;2.35;73.11;98927.83;24430;1355;3053291;-73
2021/11/21 04:18:45;;;;;;;10.60;3.40;;;;;;;2.85;71.68;98929.64;24437;1360;3026138;-69
2021/11/21 04:21:15;;;;;;;14.50;3.50;;;;;;;2.81;71.57;98919.59;24448;1358;3052960;-69
2021/11/21 04:23:44;;;;;;;8.70;2.20;;;;;;;2.59;71.93;98926.61;24486;1358;3027172;-69
2021/11/21 04:26:15;;;;;;;13.00;3.00;;;;;;;2.82;71.13;98920.42;24414;1356;3049081;-64
2021/11/21 04:28:44;;;;;;;15.60;2.90;;;;;;;2.45;72.24;98923.50;24452;1361;3026933;-64
2021/11/21 04:31:16;;;;;;;10.90;2.90;;;;;;;2.17;73.50;98923.79;24503;1355;3026650;-70
2021/11/21 04:33:45;;;;;;;6.90;2.10;;;;;;;2.14;73.58;98919.56;24445;1355;3026409;-68
2021/11/21 04:36:14;;;;;;;13.50;2.50;;;;;;;2.42;73.53;98924.99;24474;1358;3052709;-70
2021/11/21 04:38:43;;;;;;;10.90;2.70;;;;;;;2.91;72.06;98913.14;24458;1358;3026472;-69
2021/11/21 04:41:12;;;;;;;6.40;2.80;;;;;;;2.90;71.52;98913.04;24370;1356;3048784;-62
2021/11/21 04:43:41;;;;;;;17.80;3.00;;;;;;;2.85;71.22;98913.72;24442;1360;3026484;-68
2021/11/21 04:46:12;;;;;;;13.10;3.10;;;;;;;2.52;72.43;98909.06;24440;1359;3055680;-69
2021/11/21 04:48:41;;;;;;;10.40;2.60;;;;;;;2.43;72.78;98913.88;24460;1361;3027449;-69
2021/11/21 04:51:11;;;;;;;15.50;3.20;;;;;;;2.40;72.62;98912.96;24490;1359;3026586;-68
2021/11/21 04:53:40;;;;;;;14.80;3.10;;;;;;;2.19;73.45;98919.40;24460;1361;3059111;-62
2021/11/21 04:56:10;;;;;;;10.10;2.40;;;;;;;2.13;74.49;98929.27;24422;1360;3026815;-68
2021/11/21 04:58:39;;;;;;;11.10;3.20;;;;;;;2.72;72.96;98922.35;24452;1358;3026421;-67
2021/11/21 05:01:08;;;;;;;12.70;3.20;;;;;;;2.96;71.28;98922.84;24492;1360;3055896;-69
2021/11/21 05:03:37;;;;;;;10.60;3.80;;;;;;;2.79;71.32;98915.68;24467;1358;3026726;-67
2021/11/21 05:06:06;;;;;;;15.60;3.70;;;;;;;2.33;72.97;98916.65;24456;1359;3051745;-69
2021/11/21 05:08:36;;;;;;;16.40;4.50;;;;;;;2.36;72.84;98921.22;24428;1359;3026762;-64
2021/11/21 05:11:05;;;;;;;15.70;4.50;;;;;;;2.13;73.59;98921.85;24441;1359;3026488;-66
2021/11/21 05:13:42;;;;;;;13.30;3.90;;;;;;;1.82;74.87;98924.64;24489;1361;3054565;-67
2021/11/21 05:16:11;;;;;;;11.20;3.00;;;;;;;1.83;74.72;98932.52;24454;1354;3027521;-70
2021/11/21 05:18:40;;;;;;;13.20;3.00;;;;;;;1.91;74.58;98934.69;24444;1360;3048723;-66
2021/11/21 05:21:09;;;;;;;10.90;2.80;;;;;;;2.47;73.77;98935.02;24472;1358;3025945;-65
2021/11/21 05:23:38;;;;;;;17.60;3.90;;;;;;;2.96;71.84;98920.92;24429;1360;3057680;-68
2021/11/21 05:26:07;;;;;;;11.40;3.20;;;;;;;2.92;71.50;98920.19;24440;1360;3026326;-68
2021/11/21 05:28:37;;;;;;;19.60;3.90;;;;;;;2.63;72.46;98920.60;24445;1360;3054932;-67
2021/11/21 05:31:06;;;;;;;11.00;3.40;;;;;;;2.46;73.00;98931.61;24445;1359;3026563;-69
2021/11/21 05:33:35;;;;;;;24.30;3.50;;;;;;;2.33;73.32;98928.95;24452;1354;3029311;-63
2021/11/21 05:36:05;;;;;;;14.90;4.40;;;;;;;2.06;74.69;98926.59;24419;1354;3054090;-65
2021/11/21 05:38:33;;;;;;;23.50;4.60;;;;;;;2.16;74.19;98926.44;24415;1354;3026118;-71
2021/11/21 05:41:02;;;;;;;15.30;4.10;;;;;;;2.18;74.31;98922.71;24483;1354;3050655;-69
2021/11/21 05:43:32;;;;;;;14.50;4.40;;;;;;;2.83;73.20;98923.48;24476;1354;3026230;-68
2021/11/21 05:46:01;;;;;;;15.30;4.20;;;;;;;3.13;71.99;98927.71;24448;1356;3048696;-65
2021/11/21 05:48:30;;;;;;;18.20;4.70;;;;;;;3.39;71.03;98935.37;24428;1354;3026258;-68
2021/11/21 05:50:59;;;;;;;17.60;4.10;;;;;;;3.21;70.96;98937.45;24453;1355;3068404;-64
2021/11/21 05:53:28;;;;;;;19.30;6.20;;;;;;;3.01;71.58;98935.27;24490;1359;3026882;-70
2021/11/21 05:55:57;;;;;;;25.10;7.30;;;;;;;2.90;72.12;98938.98;24460;1354;3049285;-67
2021/11/21 05:58:26;;;;;;;21.00;6.10;;;;;;;2.73;72.87;98934.58;24514;1354;3027636;-70
2021/11/21 06:00:55;;;;;;;19.10;6.80;;;;;;;2.68;73.07;98927.33;24462;1357;3052405;-72
2021/11/21 06:03:24;;;;;;;27.80;6.90;;;;;;;2.74;73.04;98936.80;24478;1354;3027281;-69
2021/11/21 06:05:53;;;;;;;18.80;5.90;;;;;;;2.82;73.34;98940.32;24421;1359;3049654;-70
2021/11/21 06:08:23;;;;;;;25.20;6.00;;;;;;;3.29;72.18;98942.86;24477;1354;3026577;-67
2021/11/21 06:10:52;;;;;;;22.30;6.10;;;;;;;3.70;70.96;98942.43;24442;1357;3026859;-65
2021/11/21 06:13:32;;;;;;;29.90;7.90;;;;;;;3.87;69.94;98948.48;24450;1361;3052676;-68
2021/11/21 06:16:03;;;;;;;25.90;7.80;;;;;;;3.35;71.52;98951.27;24419;1354;3026844;-66
2021/11/21 06:18:32;;;;;;;23.00;7.00;;;;;;;3.30;71.87;98942.64;24450;1357;3026605;-71
2021/11/21 06:21:01;;;;;;;20.60;8.70;;;;;;;3.52;70.80;98945.22;24428;1354;3026541;-69
2021/11/21 06:23:33;;;;;;;32.60;10.90;;;;;;;3.06;72.56;98951.35;24464;1354;3055241;-69
2021/11/21 06:26:03;;;;;;;33.90;13.20;;;;;;;2.93;73.26;98947.52;24497;1360;3026744;-69
2021/11/21 06:28:32;;;;;;;36.60;12.90;;;;;;;2.88;73.32;98953.23;24437;1357;3026402;-67
2021/11/21 06:31:02;;;;;;;27.40;8.50;;;;;;;2.83;74.06;98953.04;24457;1357;3026591;-69
2021/11/21 06:33:31;;;;;;;27.10;7.40;;;;;;;3.60;72.00;98953.03;24409;1358;3028459;-68
2021/11/21 06:36:05;;;;;;;29.50;11.90;;;;;;;3.81;71.10;98956.36;24380;1359;3067934;-67
2021/11/21 06:38:35;;;;;;;35.00;13.30;;;;;;;3.81;70.75;98953.77;24370;1361;3026568;-68
2021/11/21 06:41:04;;;;;;;32.90;12.50;;;;;;;3.82;70.42;98946.43;24435;1357;3027741;-67
2021/11/21 06:43:33;;;;;;;41.50;15.00;;;;;;;3.37;72.00;98944.43;24482;1354;3068027;-72
2021/11/21 06:46:03;;;;;;;39.40;16.40;;;;;;;3.22;72.44;98944.00;24466;1354;3026723;-67
2021/11/21 06:48:34;;;;;;;44.00;16.00;;;;;;;2.90;73.75;98949.54;24419;1354;3028153;-67
2021/11/21 06:51:04;;;;;;;37.20;13.10;;;;;;;2.84;74.11;98952.35;24438;1358;3070329;-68
2021/11/21 06:53:33;;;;;;;28.90;8.20;;;;;;;2.77;74.89;98946.56;24468;1354;3026947;-69
2021/11/21 06:56:02;;;;;;;24.90;8.90;;;;;;;3.27;73.56;98943.63;24445;1355;3026324;-71
2021/11/21 06:58:31;;;;;;;25.50;9.20;;;;;;;3.68;71.95;98934.37;24453;1358;3066641;-71
2021/11/21 07:01:00;;;;;;;40.20;13.90;;;;;;;3.67;71.42;98939.61;24433;1357;3026669;-68
2021/11/21 07:03:29;;;;;;;44.20;13.40;;;;;;;3.52;72.36;98942.81;24472;1359;3027032;-67
2021/11/21 07:05:58;;;;;;;32.50;11.00;;;;;;;3.37;72.97;98934.05;24426;1357;3070623;-75
2021/11/21 07:08:28;;;;;;;22.90;9.50;;;;;;;3.25;73.37;98932.29;24455;1354;3028038;-73
2021/11/21 07:10:57;;;;;;;20.10;8.50;;;;;;;3.02;74.26;98921.23;24426;1354;3029351;-71
2021/11/21 07:13:26;;;;;;;32.90;11.90;;;;;;;3.01;74.43;98922.80;24424;1358;3070397;-66
2021/11/21 07:15:55;;;;;;;30.70;7.70;;;;;;;2.94;75.29;98924.63;24419;1358;3030028;-67
2021/11/21 07:18:24;;;;;;;23.20;8.50;;;;;;;3.64;73.86;98912.70;24439;1360;3053626;-68
2021/11/21 07:20:53;;;;;;;23.10;9.20;;;;;;;3.84;72.93;98909.64;24437;1354;3026836;-66
2021/11/21 07:23:23;;;;;;;28.60;9.80;;;;;;;4.11;72.21;98910.22;24446;1354;3056946;-69
2021/11/21 07:25:53;;;;;;;23.40;9.70;;;;;;;4.00;72.34;98916.23;24445;1357;3027892;-68
2021/11/21 07:28:21;;;;;;;32.50;11.80;;;;;;;3.96;72.68;98925.60;24407;1357;3026705;-69
2021/11/21 07:30:51;;;;;;;21.60;7.90;;;;;;;3.79;73.21;98923.88;24410;1358;3056260;-72
2021/11/21 07:33:20;;;;;;;22.60;9.10;;;;;;;3.64;73.91;98933.85;24491;1354;3026226;-66
2021/11/21 07:35:51;;;;;;;17.60;7.20;;;;;;;3.57;74.55;98919.40;24529;1354;3051351;-65
2021/11/21 07:38:21;;;;;;;16.90;5.10;;;;;;;4.02;73.81;98928.95;24440;1358;3027073;-70
2021/11/21 07:40:52;;;;;;;22.70;6.80;;;;;;;4.47;72.31;98923.09;24502;1348;3026892;-72
2021/11/21 07:43:22;;;;;;;14.30;4.90;;;;;;;4.13;72.70;98928.36;24425;1354;3028275;-72
2021/11/21 07:45:52;;;;;;;15.10;5.00;;;;;;;4.13;73.01;98934.41;24480;1357;3026521;-68
2021/11/21 07:48:21;;;;;;;18.50;5.40;;;;;;;3.84;73.88;98929.56;24453;1353;3027287;-72
2021/11/21 07:50:50;;;;;;;18.30;5.50;;;;;;;3.64;75.38;98931.26;24444;1358;3028238;-71
2021/11/21 07:53:19;;;;;;;15.60;6.20;;;;;;;3.69;75.39;98930.02;24483;1358;3026663;-68
2021/11/21 07:55:48;;;;;;;16.30;5.30;;;;;;;3.67;75.84;98925.04;24455;1354;3054624;-68
2021/11/21 07:58:17;;;;;;;19.50;6.10;;;;;;;4.42;74.08;98916.33;24450;1351;3027337;-70
2021/11/21 08:00:47;;;;;;;16.20;5.90;;;;;;;4.76;72.46;98908.93;24467;1357;3048482;-72
2021/11/21 08:03:16;;;;;;;18.10;5.70;;;;;;;4.64;72.98;98906.87;24453;1354;3030373;-68
2021/11/21 08:05:45;;;;;;;23.20;5.80;;;;;;;4.61;73.22;98905.27;24507;1359;3026455;-71
2021/11/21 08:08:15;;;;;;;25.30;6.80;;;;;;;4.46;74.14;98904.20;24457;1361;3047998;-66
2021/11/21 08:10:44;;;;;;;17.60;5.60;;;;;;;4.19;75.27;98906.23;24527;1359;3026375;-70
2021/11/21 08:13:33;;;;;;;19.90;6.40;;;;;;;4.20;75.59;98910.16;24433;1362;3071494;-71
2021/11/21 08:16:02;;;;;;;27.30;7.90;;;;;;;4.28;75.86;98903.95;24488;1359;3026428;-70
2021/11/21 08:18:32;;;;;;;26.90;9.70;;;;;;;5.06;74.10;98900.62;24470;1360;3028496;-70
2021/11/21 08:21:01;;;;;;;24.50;8.70;;;;;;;5.50;72.32;98895.89;24553;1354;3070923;-72
2021/11/21 08:23:30;;;;;;;21.20;7.70;;;;;;;5.42;72.45;98898.54;24548;1355;3026635;-75
2021/11/21 08:25:59;;;;;;;28.10;7.30;;;;;;;5.36;73.11;98900.42;24472;1354;3053400;-70
2021/11/21 08:28:28;;;;;;;20.50;7.90;;;;;;;5.20;74.10;98901.33;24498;1355;3026922;-69
2021/11/21 08:30:57;;;;;;;30.80;7.20;;;;;;;5.24;74.32;98899.39;24503;1354;3052640;-72
2021/11/21 08:33:30;;;;;;;13.20;5.30;;;;;;;5.39;74.23;98890.18;24467;1355;3026236;-73
2021/11/21 08:35:59;;;;;;;9.90;3.90;;;;;;;6.00;72.64;98887.19;24407;1355;3026629;-72
2021/11/21 08:38:28;;;;;;;19.60;5.50;;;;;;;6.65;70.53;98881.93;24500;1358;3026665;-71
2021/11/21 08:40:57;;;;;;;18.40;6.30;;;;;;;6.48;70.74;98879.69;24469;1354;3051172;-76
2021/11/21 08:43:26;;;;;;;24.50;9.70;;;;;;;6.36;71.04;98872.16;24442;1354;3028222;-67
2021/11/21 08:45:56;;;;;;;16.40;6.00;;;;;;;6.23;71.62;98886.17;24498;1354;3054993;-73
2021/11/21 08:48:25;;;;;;;17.70;7.10;;;;;;;5.93;73.19;98863.54;24465;1354;3029857;-70
2021/11/21 08:50:54;;;;;;;12.50;5.20;;;;;;;5.92;73.58;98864.09;24428;1354;3051706;-69
2021/11/21 08:53:23;;;;;;;15.80;5.70;;;;;;;6.20;72.88;98857.86;24440;1354;3028404;-71
2021/11/21 08:55:52;;;;;;;21.60;6.10;;;;;;;6.74;71.71;98854.05;24405;1354;3027014;-70
2021/11/21 08:58:22;;;;;;;20.50;6.60;;;;;;;6.90;70.70;98848.37;24398;1357;3049214;-70
2021/11/21 09:00:52;;;;;;;17.90;6.00;;;;;;;6.99;70.56;98858.11;24441;1360;3026205;-72
2021/11/21 09:03:22;;;;;;;17.00;6.30;;;;;;;6.96;70.60;98853.93;24429;1360;3056273;-66
2021/11/21 09:05:51;;;;;;;23.10;8.00;;;;;;;6.77;71.38;98849.23;24453;1354;3026877;-66
2021/11/21 09:08:20;;;;;;;18.80;6.80;;;;;;;6.65;71.98;98859.27;24456;1354;3051711;-72
2021/11/21 09:10:49;;;;;;;14.60;5.80;;;;;;;6.78;71.64;98861.02;24485;1354;3026183;-68
2021/11/21 09:13:18;;;;;;;16.20;4.50;;;;;;;6.81;71.99;98862.59;24454;1354;3052820;-69
2021/11/21 09:15:47;;;;;;;13.40;5.60;;;;;;;7.71;69.78;98865.74;24467;1354;3026874;-69
2021/11/21 09:18:17;;;;;;;14.40;5.90;;;;;;;7.79;69.07;98869.96;24426;1351;3026472;-73
2021/11/21 09:20:46;;;;;;;22.90;6.40;;;;;;;7.53;69.74;98876.54;24418;1358;3026357;-69
2021/11/21 09:23:18;;;;;;;16.40;5.70;;;;;;;7.60;69.85;98870.89;24476;1358;3026626;-70
2021/11/21 09:25:47;;;;;;;21.40;7.00;;;;;;;7.49;70.19;98871.56;24437;1354;3058154;-65
2021/11/21 09:28:16;;;;;;;15.50;5.60;;;;;;;7.41;70.64;98882.09;24396;1357;3030343;-68
2021/11/21 09:30:46;;;;;;;11.40;4.40;;;;;;;7.56;69.95;98879.86;24538;1351;3054511;-73
2021/11/21 09:33:16;;;;;;;13.40;5.00;;;;;;;7.65;70.52;98884.02;24520;1348;3027493;-68
2021/11/21 09:35:45;;;;;;;15.10;5.60;;;;;;;8.14;69.16;98887.24;24517;1351;3026666;-71
2021/11/21 09:38:14;;;;;;;21.10;6.20;;;;;;;8.08;69.03;98875.59;24503;1354;3054345;-69
2021/11/21 09:40:43;;;;;;;14.70;6.20;;;;;;;8.00;69.35;98886.39;24507;1351;3027363;-67
2021/11/21 09:43:12;;;;;;;20.60;7.70;;;;;;;7.93;69.47;98870.56;24359;1351;3054743;-71
2021/11/21 09:45:42;;;;;;;21.10;8.00;;;;;;;7.81;70.15;98882.58;24464;1350;3028323;-72
2021/11/21 09:48:11;;;;;;;20.50;7.90;;;;;;;7.68;70.96;98867.63;24498;1351;3048573;-73
2021/11/21 09:50:41;;;;;;;19.00;6.60;;;;;;;7.84;70.79;98866.17;24479;1348;3027429;-69
2021/11/21 09:53:11;;;;;;;20.20;6.60;;;;;;;8.45;69.30;98867.83;24528;1348;3026745;-67
2021/11/21 09:55:41;;;;;;;14.70;6.80;;;;;;;8.74;68.17;98858.86;24490;1354;3027049;-72
2021/11/21 09:58:10;;;;;;;18.60;7.70;;;;;;;8.69;68.05;98863.91;24514;1351;3026580;-72
2021/11/21 10:00:40;;;;;;;16.10;7.20;;;;;;;8.37;69.13;98870.70;24520;1349;3052142;-70
2021/11/21 10:03:11;;;;;;;25.00;9.10;;;;;;;8.10;70.26;98862.88;24537;1351;3026472;-74
2021/11/21 10:05:45;;;;;;;20.20;8.40;;;;;;;7.99;70.97;98868.24;24452;1351;3026903;-73
2021/11/21 10:08:16;;;;;;;19.00;8.50;;;;;;;8.02;70.89;98857.30;24495;1351;3052596;-69
2021/11/21 10:10:50;;;;;;;21.60;8.40;;;;;;;8.08;71.60;98859.20;24522;1351;3026079;-72
2021/11/21 10:13:40;;;;;;;17.60;7.10;;;;;;;8.85;69.62;98858.20;24472;1351;3069053;-73
2021/11/21 10:16:19;;;;;;;21.30;9.40;;;;;;;8.83;68.90;98864.27;24510;1351;3026650;-68
2021/11/21 10:19:13;;;;;;;21.10;8.70;;;;;;;8.75;69.31;98852.72;24516;1350;3051937;-68
2021/11/21 10:21:52;;;;;;;20.20;10.40;;;;;;;8.36;71.95;98858.73;24541;1350;3052520;-77
2021/11/21 10:24:21;;;;;;;24.70;10.00;;;;;;;8.14;72.30;98853.23;24498;1357;3059482;-66
2021/11/21 10:27:11;;;;;;;22.20;8.50;;;;;;;8.02;73.54;98861.11;24481;1351;3026474;-73
2021/11/21 10:29:44;;;;;;;22.50;9.50;;;;;;;8.69;72.57;98839.09;24568;1351;3055446;-68
2021/11/21 10:32:26;;;;;;;21.50;10.30;;;;;;;8.98;71.59;98840.44;24493;1351;3050553;-73
2021/11/21 10:34:58;;;;;;;19.90;10.30;;;;;;;8.69;73.11;98838.23;24508;1352;3068614;-68
2021/11/21 10:37:37;;;;;;;24.20;9.50;;;;;;;8.34;74.92;98841.58;24513;1354;3028540;-67
2021/11/21 10:40:08;;;;;;;23.60;10.60;;;;;;;8.07;76.62;98834.67;24479;1351;3055404;-70
2021/11/21 10:42:39;;;;;;;18.30;10.80;;;;;;;8.18;76.66;98835.41;24547;1350;3026551;-75
2021/11/21 10:45:10;;;;;;;23.00;10.50;;;;;;;8.66;75.51;98820.42;24545;1351;3028436;-71
2021/11/21 10:47:52;;;;;;;25.60;11.10;;;;;;;9.08;73.00;98810.45;24493;1354;3052753;-68
2021/11/21 10:50:32;;;;;;;24.00;11.00;;;;;;;8.96;72.78;98811.89;24555;1347;3053280;-72
2021/11/21 10:53:06;;;;;;;22.90;10.00;;;;;;;8.85;72.95;98813.98;24554;1354;3055021;-71
2021/11/21 10:55:37;;;;;;;19.50;10.20;;;;;;;8.70;72.82;98807.77;24500;1350;3068658;-70
2021/11/21 10:58:14;;;;;;;23.20;10.90;;;;;;;8.71;72.73;98805.29;24561;1350;3026316;-68
2021/11/21 11:00:54;;;;;;;22.40;8.50;;;;;;;8.68;73.08;98810.52;24511;1354;3056714;-78
2021/11/21 11:04:58;;;;;;;19.00;7.80;;;;;;;9.61;69.88;98815.66;30812;1364;3026884;-66
2021/11/21 11:07:29;;;;;;;23.80;12.10;;;;;;;9.51;70.30;98805.54;24395;1357;3052004;-73
2021/11/21 11:09:58;;;;;;;24.40;10.60;;;;;;;9.39;71.01;98800.73;24482;1361;3027954;-69
2021/11/21 11:12:27;;;;;;;34.90;11.50;;;;;;;8.89;72.85;98795.91;24504;1360;3026704;-70
2021/11/21 11:14:57;;;;;;;20.00;10.60;;;;;;;8.52;74.57;98806.46;24456;1361;3028438;-72
2021/11/21 11:17:34;;;;;;;20.10;10.60;;;;;;;8.49;74.98;98808.06;24317;1350;3192527;-69
2021/11/21 11:20:09;;;;;;;20.10;9.80;;;;;;;9.25;72.78;98804.79;24492;1351;3026717;-67
2021/11/21 11:22:40;;;;;;;18.90;9.00;;;;;;;9.15;72.53;98794.98;24493;1357;3049573;-70
2021/11/21 11:25:28;;;;;;;19.40;10.10;;;;;;;9.06;72.83;98791.17;24495;1356;3026750;-71
2021/11/21 11:28:17;;;;;;;23.70;10.70;;;;;;;8.78;73.87;98791.00;24526;1351;3052793;-68
2021/11/21 11:30:46;;;;;;;20.30;10.60;;;;;;;8.76;73.52;98791.31;24495;1345;3068383;-71
2021/11/21 11:33:17;;;;;;;37.00;9.20;;;;;;;8.58;74.66;98787.94;24510;1355;3028614;-72